sensor_id;sensor_type;location;lat;lon;timestamp;P1;durP1;ratioP1;P2;durP2;ratioP2
10661;SDS011;5379;51.034;7.006;2023-04-06T04:32:19;4.50;;;4.10;;
10661;SDS011;5379;51.034;7.006;2023-04-06T04:34:46;3.97;;;3.67;;
10661;SDS011;5379;51.034;7.006;2023-04-06T04:37:13;4.10;;;3.80;;
10661;SDS011;5379;51.034;7.006;2023-04-06T04:39:40;3.50;;;3.30;;
10661;SDS011;5379;51.034;7.006;2023-04-06T04:42:07;3.53;;;3.23;;
10661;SDS011;5379;51.034;7.006;2023-04-06T04:44:34;4.23;;;3.93;;
10661;SDS011;5379;51.034;7.006;2023-04-06T04:47:02;6.57;;;3.77;;
10661;SDS011;5379;51.034;7.006;2023-04-06T04:49:30;4.57;;;4.17;;
10661;SDS011;5379;51.034;7.006;2023-04-06T04:51:57;4.03;;;3.70;;
10661;SDS011;5379;51.034;7.006;2023-04-06T04:54:24;4.50;;;4.10;;
10661;SDS011;5379;51.034;7.006;2023-04-06T04:56:51;3.67;;;3.37;;
10661;SDS011;5379;51.034;7.006;2023-04-06T04:59:18;3.90;;;3.63;;
10661;SDS011;5379;51.034;7.006;2023-04-06T05:01:45;3.47;;;3.23;;
10661;SDS011;5379;51.034;7.006;2023-04-06T05:04:12;4.03;;;3.63;;
10661;SDS011;5379;51.034;7.006;2023-04-06T05:06:41;8.97;;;4.53;;
10661;SDS011;5379;51.034;7.006;2023-04-06T05:09:08;4.20;;;3.50;;
10661;SDS011;5379;51.034;7.006;2023-04-06T05:11:35;4.37;;;4.03;;
10661;SDS011;5379;51.034;7.006;2023-04-06T05:14:02;3.87;;;3.57;;
10661;SDS011;5379;51.034;7.006;2023-04-06T05:16:29;4.27;;;3.87;;
10661;SDS011;5379;51.034;7.006;2023-04-06T05:18:56;4.67;;;4.27;;
10661;SDS011;5379;51.034;7.006;2023-04-06T05:21:23;3.67;;;3.47;;
10661;SDS011;5379;51.034;7.006;2023-04-06T05:23:52;4.07;;;3.77;;
10661;SDS011;5379;51.034;7.006;2023-04-06T05:26:19;4.40;;;4.03;;
10661;SDS011;5379;51.034;7.006;2023-04-06T05:28:46;3.73;;;3.43;;
10661;SDS011;5379;51.034;7.006;2023-04-06T05:31:13;4.60;;;4.20;;
10661;SDS011;5379;51.034;7.006;2023-04-06T05:33:41;4.33;;;4.03;;
10661;SDS011;5379;51.034;7.006;2023-04-06T05:36:08;5.40;;;3.37;;
10661;SDS011;5379;51.034;7.006;2023-04-06T05:38:35;4.00;;;3.70;;
10661;SDS011;5379;51.034;7.006;2023-04-06T05:41:03;3.20;;;3.00;;
10661;SDS011;5379;51.034;7.006;2023-04-06T05:43:31;3.03;;;2.83;;
10661;SDS011;5379;51.034;7.006;2023-04-06T05:45:58;3.53;;;3.23;;
10661;SDS011;5379;51.034;7.006;2023-04-06T05:48:25;3.90;;;3.60;;
10661;SDS011;5379;51.034;7.006;2023-04-06T05:50:52;5.37;;;3.33;;
10661;SDS011;5379;51.034;7.006;2023-04-06T05:53:19;4.07;;;3.67;;
10661;SDS011;5379;51.034;7.006;2023-04-06T05:55:46;3.50;;;3.07;;
10661;SDS011;5379;51.034;7.006;2023-04-06T05:58:15;3.70;;;3.40;;
10661;SDS011;5379;51.034;7.006;2023-04-06T06:00:42;4.50;;;4.10;;
10661;SDS011;5379;51.034;7.006;2023-04-06T06:03:10;3.80;;;3.50;;
10661;SDS011;5379;51.034;7.006;2023-04-06T06:05:38;3.50;;;3.30;;
10661;SDS011;5379;51.034;7.006;2023-04-06T06:08:05;3.83;;;3.47;;
10661;SDS011;5379;51.034;7.006;2023-04-06T06:10:34;3.50;;;3.23;;
10661;SDS011;5379;51.034;7.006;2023-04-06T06:13:01;3.37;;;3.17;;
10661;SDS011;5379;51.034;7.006;2023-04-06T06:15:29;3.17;;;2.87;;
10661;SDS011;5379;51.034;7.006;2023-04-06T06:17:56;2.40;;;2.30;;
10661;SDS011;5379;51.034;7.006;2023-04-06T06:20:23;2.57;;;2.47;;
10661;SDS011;5379;51.034;7.006;2023-04-06T06:22:51;6.03;;;2.90;;
10661;SDS011;5379;51.034;7.006;2023-04-06T06:25:18;3.07;;;2.87;;
10661;SDS011;5379;51.034;7.006;2023-04-06T06:27:46;3.80;;;2.70;;
10661;SDS011;5379;51.034;7.006;2023-04-06T06:30:13;3.73;;;3.50;;
10661;SDS011;5379;51.034;7.006;2023-04-06T06:32:42;3.30;;;3.00;;
10661;SDS011;5379;51.034;7.006;2023-04-06T06:35:09;2.80;;;2.60;;
10661;SDS011;5379;51.034;7.006;2023-04-06T06:37:36;3.13;;;2.87;;
10661;SDS011;5379;51.034;7.006;2023-04-06T06:40:03;2.90;;;2.70;;
10661;SDS011;5379;51.034;7.006;2023-04-06T06:42:31;2.80;;;2.70;;
10661;SDS011;5379;51.034;7.006;2023-04-06T06:44:58;3.50;;;3.30;;
10661;SDS011;5379;51.034;7.006;2023-04-06T06:47:26;3.13;;;2.93;;
10661;SDS011;5379;51.034;7.006;2023-04-06T06:49:54;2.63;;;2.47;;
10661;SDS011;5379;51.034;7.006;2023-04-06T06:52:21;3.67;;;2.70;;
10661;SDS011;5379;51.034;7.006;2023-04-06T06:54:49;2.93;;;2.80;;
10661;SDS011;5379;51.034;7.006;2023-04-06T06:57:16;3.87;;;3.47;;
10661;SDS011;5379;51.034;7.006;2023-04-06T06:59:43;3.17;;;2.97;;
10661;SDS011;5379;51.034;7.006;2023-04-06T07:02:10;3.93;;;2.67;;
10661;SDS011;5379;51.034;7.006;2023-04-06T07:04:37;2.73;;;2.60;;
10661;SDS011;5379;51.034;7.006;2023-04-06T07:07:05;6.37;;;2.53;;
10661;SDS011;5379;51.034;7.006;2023-04-06T07:09:33;3.17;;;2.57;;
10661;SDS011;5379;51.034;7.006;2023-04-06T07:12:01;2.40;;;2.30;;
10661;SDS011;5379;51.034;7.006;2023-04-06T07:14:28;2.90;;;2.70;;
10661;SDS011;5379;51.034;7.006;2023-04-06T07:16:55;3.40;;;3.10;;
10661;SDS011;5379;51.034;7.006;2023-04-06T07:19:22;3.83;;;2.87;;
10661;SDS011;5379;51.034;7.006;2023-04-06T07:21:49;2.60;;;2.50;;
10661;SDS011;5379;51.034;7.006;2023-04-06T07:24:17;2.90;;;2.70;;
10661;SDS011;5379;51.034;7.006;2023-04-06T07:26:44;3.93;;;3.53;;
10661;SDS011;5379;51.034;7.006;2023-04-06T07:29:11;13.43;;;3.43;;
10661;SDS011;5379;51.034;7.006;2023-04-06T07:31:39;2.37;;;2.27;;
10661;SDS011;5379;51.034;7.006;2023-04-06T07:34:06;16.93;;;2.83;;
10661;SDS011;5379;51.034;7.006;2023-04-06T07:36:33;2.77;;;2.57;;
10661;SDS011;5379;51.034;7.006;2023-04-06T07:39:00;2.73;;;2.53;;
10661;SDS011;5379;51.034;7.006;2023-04-06T07:41:28;2.70;;;2.60;;
10661;SDS011;5379;51.034;7.006;2023-04-06T07:43:56;2.80;;;2.60;;
10661;SDS011;5379;51.034;7.006;2023-04-06T07:46:23;3.87;;;3.20;;
10661;SDS011;5379;51.034;7.006;2023-04-06T07:48:50;3.50;;;3.20;;
10661;SDS011;5379;51.034;7.006;2023-04-06T07:51:17;2.80;;;2.60;;
10661;SDS011;5379;51.034;7.006;2023-04-06T07:53:44;3.17;;;2.87;;
10661;SDS011;5379;51.034;7.006;2023-04-06T07:56:11;4.53;;;3.47;;
10661;SDS011;5379;51.034;7.006;2023-04-06T07:58:41;2.67;;;2.57;;
10661;SDS011;5379;51.034;7.006;2023-04-06T08:01:08;3.13;;;2.83;;
10661;SDS011;5379;51.034;7.006;2023-04-06T08:03:36;2.90;;;2.70;;
10661;SDS011;5379;51.034;7.006;2023-04-06T08:06:03;2.90;;;2.70;;
10661;SDS011;5379;51.034;7.006;2023-04-06T08:08:31;3.00;;;2.80;;
10661;SDS011;5379;51.034;7.006;2023-04-06T08:10:58;2.53;;;2.43;;
10661;SDS011;5379;51.034;7.006;2023-04-06T08:13:27;3.87;;;3.57;;
10661;SDS011;5379;51.034;7.006;2023-04-06T08:15:56;3.63;;;2.83;;
10661;SDS011;5379;51.034;7.006;2023-04-06T08:18:23;4.57;;;2.97;;
10661;SDS011;5379;51.034;7.006;2023-04-06T08:20:50;4.70;;;3.13;;
10661;SDS011;5379;51.034;7.006;2023-04-06T08:23:17;4.70;;;3.50;;
10661;SDS011;5379;51.034;7.006;2023-04-06T08:25:44;3.10;;;2.90;;
10661;SDS011;5379;51.034;7.006;2023-04-06T08:28:12;4.07;;;3.70;;
10661;SDS011;5379;51.034;7.006;2023-04-06T08:30:39;2.80;;;2.60;;
10661;SDS011;5379;51.034;7.006;2023-04-06T08:33:08;2.90;;;2.70;;
10661;SDS011;5379;51.034;7.006;2023-04-06T08:35:35;3.47;;;3.17;;
10661;SDS011;5379;51.034;7.006;2023-04-06T08:38:02;3.37;;;3.17;;
10661;SDS011;5379;51.034;7.006;2023-04-06T08:40:29;3.83;;;3.23;;
10661;SDS011;5379;51.034;7.006;2023-04-06T08:43:01;7.80;;;3.47;;
10661;SDS011;5379;51.034;7.006;2023-04-06T08:45:33;3.20;;;2.90;;
10661;SDS011;5379;51.034;7.006;2023-04-06T08:48:00;3.87;;;3.53;;
10661;SDS011;5379;51.034;7.006;2023-04-06T08:50:32;3.23;;;2.63;;
10661;SDS011;5379;51.034;7.006;2023-04-06T08:53:00;3.00;;;2.80;;
10661;SDS011;5379;51.034;7.006;2023-04-06T08:55:27;3.47;;;3.23;;
10661;SDS011;5379;51.034;7.006;2023-04-06T08:57:55;3.03;;;2.83;;
10661;SDS011;5379;51.034;7.006;2023-04-06T09:00:23;4.10;;;3.70;;
10661;SDS011;5379;51.034;7.006;2023-04-06T09:02:53;4.10;;;3.77;;
10661;SDS011;5379;51.034;7.006;2023-04-06T09:05:21;2.67;;;2.57;;
10661;SDS011;5379;51.034;7.006;2023-04-06T09:07:51;3.10;;;2.90;;
10661;SDS011;5379;51.034;7.006;2023-04-06T09:10:18;4.37;;;3.97;;
10661;SDS011;5379;51.034;7.006;2023-04-06T09:12:46;4.83;;;3.57;;
10661;SDS011;5379;51.034;7.006;2023-04-06T09:15:19;3.93;;;3.63;;
10661;SDS011;5379;51.034;7.006;2023-04-06T09:17:47;3.10;;;2.90;;
10661;SDS011;5379;51.034;7.006;2023-04-06T09:20:14;3.33;;;3.13;;
10661;SDS011;5379;51.034;7.006;2023-04-06T09:22:48;3.03;;;2.83;;
10661;SDS011;5379;51.034;7.006;2023-04-06T09:25:19;4.27;;;3.27;;
10661;SDS011;5379;51.034;7.006;2023-04-06T09:27:48;4.50;;;3.70;;
10661;SDS011;5379;51.034;7.006;2023-04-06T09:30:24;6.73;;;3.17;;
10661;SDS011;5379;51.034;7.006;2023-04-06T09:32:52;4.10;;;3.80;;
10661;SDS011;5379;51.034;7.006;2023-04-06T09:35:20;4.27;;;3.87;;
10661;SDS011;5379;51.034;7.006;2023-04-06T09:37:49;4.47;;;4.00;;
10661;SDS011;5379;51.034;7.006;2023-04-06T09:40:19;3.77;;;3.47;;
10661;SDS011;5379;51.034;7.006;2023-04-06T09:42:47;3.97;;;3.57;;
10661;SDS011;5379;51.034;7.006;2023-04-06T09:45:19;5.90;;;4.43;;
10661;SDS011;5379;51.034;7.006;2023-04-06T09:47:46;4.53;;;4.10;;
10661;SDS011;5379;51.034;7.006;2023-04-06T09:50:15;3.30;;;3.00;;
10661;SDS011;5379;51.034;7.006;2023-04-06T09:52:42;4.07;;;3.67;;
10661;SDS011;5379;51.034;7.006;2023-04-06T09:55:16;4.13;;;3.80;;
10661;SDS011;5379;51.034;7.006;2023-04-06T09:57:50;7.30;;;5.00;;
10661;SDS011;5379;51.034;7.006;2023-04-06T10:00:21;3.90;;;3.63;;
10661;SDS011;5379;51.034;7.006;2023-04-06T10:02:50;4.20;;;3.83;;
10661;SDS011;5379;51.034;7.006;2023-04-06T10:05:25;3.87;;;3.57;;
10661;SDS011;5379;51.034;7.006;2023-04-06T10:07:59;5.13;;;3.83;;
10661;SDS011;5379;51.034;7.006;2023-04-06T10:10:33;5.53;;;4.50;;
10661;SDS011;5379;51.034;7.006;2023-04-06T10:13:00;3.27;;;3.00;;
10661;SDS011;5379;51.034;7.006;2023-04-06T10:15:28;5.60;;;5.10;;
10661;SDS011;5379;51.034;7.006;2023-04-06T10:17:55;4.10;;;3.80;;
10661;SDS011;5379;51.034;7.006;2023-04-06T10:20:23;6.10;;;4.80;;
10661;SDS011;5379;51.034;7.006;2023-04-06T10:22:55;4.37;;;3.97;;
10661;SDS011;5379;51.034;7.006;2023-04-06T10:25:28;4.47;;;4.07;;
10661;SDS011;5379;51.034;7.006;2023-04-06T10:28:01;4.20;;;3.90;;
10661;SDS011;5379;51.034;7.006;2023-04-06T10:30:31;4.63;;;4.30;;
10661;SDS011;5379;51.034;7.006;2023-04-06T10:32:59;6.83;;;4.90;;
10661;SDS011;5379;51.034;7.006;2023-04-06T10:35:36;3.10;;;2.90;;
10661;SDS011;5379;51.034;7.006;2023-04-06T10:38:04;4.43;;;4.03;;
10661;SDS011;5379;51.034;7.006;2023-04-06T10:40:32;4.47;;;4.07;;
10661;SDS011;5379;51.034;7.006;2023-04-06T10:43:10;5.33;;;4.57;;
10661;SDS011;5379;51.034;7.006;2023-04-06T10:45:39;6.00;;;4.00;;
10661;SDS011;5379;51.034;7.006;2023-04-06T10:48:14;5.30;;;4.80;;
10661;SDS011;5379;51.034;7.006;2023-04-06T10:50:42;5.80;;;5.07;;
10661;SDS011;5379;51.034;7.006;2023-04-06T10:53:11;4.50;;;4.13;;
10661;SDS011;5379;51.034;7.006;2023-04-06T10:55:38;4.00;;;3.70;;
10661;SDS011;5379;51.034;7.006;2023-04-06T10:58:06;7.17;;;4.63;;
10661;SDS011;5379;51.034;7.006;2023-04-06T11:00:35;3.83;;;3.53;;
10661;SDS011;5379;51.034;7.006;2023-04-06T11:03:09;4.43;;;3.10;;
10661;SDS011;5379;51.034;7.006;2023-04-06T11:05:36;3.97;;;3.67;;
10661;SDS011;5379;51.034;7.006;2023-04-06T11:08:04;28.57;;;3.67;;
10661;SDS011;5379;51.034;7.006;2023-04-06T11:10:31;3.73;;;3.43;;
10661;SDS011;5379;51.034;7.006;2023-04-06T11:12:58;4.83;;;4.43;;
10661;SDS011;5379;51.034;7.006;2023-04-06T11:15:25;4.17;;;3.87;;
10661;SDS011;5379;51.034;7.006;2023-04-06T11:17:54;4.10;;;3.80;;
10661;SDS011;5379;51.034;7.006;2023-04-06T11:20:21;6.67;;;4.97;;
10661;SDS011;5379;51.034;7.006;2023-04-06T11:22:48;4.20;;;3.90;;
10661;SDS011;5379;51.034;7.006;2023-04-06T11:25:16;5.00;;;4.37;;
10661;SDS011;5379;51.034;7.006;2023-04-06T11:27:44;5.60;;;4.77;;
10661;SDS011;5379;51.034;7.006;2023-04-06T11:30:12;13.30;;;4.87;;
10661;SDS011;5379;51.034;7.006;2023-04-06T11:32:40;4.87;;;4.37;;
10661;SDS011;5379;51.034;7.006;2023-04-06T11:35:11;6.20;;;4.20;;
10661;SDS011;5379;51.034;7.006;2023-04-06T11:37:45;4.60;;;4.07;;
10661;SDS011;5379;51.034;7.006;2023-04-06T11:40:12;4.13;;;3.83;;
10661;SDS011;5379;51.034;7.006;2023-04-06T11:42:39;2.97;;;2.77;;
10661;SDS011;5379;51.034;7.006;2023-04-06T11:45:07;4.23;;;3.90;;
10661;SDS011;5379;51.034;7.006;2023-04-06T11:47:35;5.43;;;4.67;;
10661;SDS011;5379;51.034;7.006;2023-04-06T11:50:06;4.27;;;3.97;;
10661;SDS011;5379;51.034;7.006;2023-04-06T11:52:36;4.53;;;4.13;;
10661;SDS011;5379;51.034;7.006;2023-04-06T11:55:11;4.63;;;4.23;;
10661;SDS011;5379;51.034;7.006;2023-04-06T11:57:41;4.80;;;4.37;;
10661;SDS011;5379;51.034;7.006;2023-04-06T12:00:09;5.57;;;4.80;;
10661;SDS011;5379;51.034;7.006;2023-04-06T12:02:37;4.53;;;4.13;;
10661;SDS011;5379;51.034;7.006;2023-04-06T12:05:05;5.93;;;4.40;;
10661;SDS011;5379;51.034;7.006;2023-04-06T12:07:33;5.37;;;4.63;;
10661;SDS011;5379;51.034;7.006;2023-04-06T12:10:02;5.47;;;4.13;;
10661;SDS011;5379;51.034;7.006;2023-04-06T12:12:30;4.90;;;4.27;;
10661;SDS011;5379;51.034;7.006;2023-04-06T12:14:57;5.70;;;4.93;;
10661;SDS011;5379;51.034;7.006;2023-04-06T12:17:25;5.60;;;4.60;;
10661;SDS011;5379;51.034;7.006;2023-04-06T12:19:52;4.17;;;3.83;;
10661;SDS011;5379;51.034;7.006;2023-04-06T12:22:19;4.27;;;3.83;;
10661;SDS011;5379;51.034;7.006;2023-04-06T12:24:46;4.67;;;4.27;;
10661;SDS011;5379;51.034;7.006;2023-04-06T12:27:14;3.40;;;3.20;;
10661;SDS011;5379;51.034;7.006;2023-04-06T12:29:42;3.70;;;3.50;;
10661;SDS011;5379;51.034;7.006;2023-04-06T12:32:09;4.47;;;4.07;;
10661;SDS011;5379;51.034;7.006;2023-04-06T12:34:37;4.07;;;3.63;;
10661;SDS011;5379;51.034;7.006;2023-04-06T12:37:04;3.67;;;3.37;;
10661;SDS011;5379;51.034;7.006;2023-04-06T12:39:32;4.60;;;3.87;;
10661;SDS011;5379;51.034;7.006;2023-04-06T12:41:59;4.33;;;4.00;;
10661;SDS011;5379;51.034;7.006;2023-04-06T12:44:29;4.53;;;4.13;;
10661;SDS011;5379;51.034;7.006;2023-04-06T12:46:56;4.47;;;4.03;;
10661;SDS011;5379;51.034;7.006;2023-04-06T12:49:23;3.33;;;3.13;;
10661;SDS011;5379;51.034;7.006;2023-04-06T12:51:50;5.00;;;4.50;;
10661;SDS011;5379;51.034;7.006;2023-04-06T12:54:17;4.67;;;3.20;;
10661;SDS011;5379;51.034;7.006;2023-04-06T12:56:45;4.40;;;4.00;;
10661;SDS011;5379;51.034;7.006;2023-04-06T12:59:12;3.57;;;3.27;;
10661;SDS011;5379;51.034;7.006;2023-04-06T13:01:40;3.97;;;3.30;;
10661;SDS011;5379;51.034;7.006;2023-04-06T13:04:09;5.30;;;4.50;;
10661;SDS011;5379;51.034;7.006;2023-04-06T13:06:36;8.13;;;4.97;;
10661;SDS011;5379;51.034;7.006;2023-04-06T13:09:03;5.63;;;4.93;;
10661;SDS011;5379;51.034;7.006;2023-04-06T13:11:30;3.67;;;3.37;;
10661;SDS011;5379;51.034;7.006;2023-04-06T13:13:57;3.60;;;3.27;;
10661;SDS011;5379;51.034;7.006;2023-04-06T13:16:25;4.37;;;3.97;;
10661;SDS011;5379;51.034;7.006;2023-04-06T13:18:53;4.23;;;3.80;;
10661;SDS011;5379;51.034;7.006;2023-04-06T13:21:20;2.00;;;1.90;;
10661;SDS011;5379;51.034;7.006;2023-04-06T13:23:47;4.70;;;4.30;;
10661;SDS011;5379;51.034;7.006;2023-04-06T13:26:14;5.93;;;3.30;;
10661;SDS011;5379;51.034;7.006;2023-04-06T13:28:42;2.80;;;2.60;;
10661;SDS011;5379;51.034;7.006;2023-04-06T13:31:09;2.97;;;2.77;;
10661;SDS011;5379;51.034;7.006;2023-04-06T13:33:36;3.87;;;3.57;;
10661;SDS011;5379;51.034;7.006;2023-04-06T13:36:05;2.20;;;2.10;;
10661;SDS011;5379;51.034;7.006;2023-04-06T13:38:33;3.10;;;2.80;;
10661;SDS011;5379;51.034;7.006;2023-04-06T13:41:00;4.80;;;3.33;;
10661;SDS011;5379;51.034;7.006;2023-04-06T13:43:27;2.97;;;2.77;;
10661;SDS011;5379;51.034;7.006;2023-04-06T13:45:55;6.10;;;3.07;;
10661;SDS011;5379;51.034;7.006;2023-04-06T13:48:24;2.13;;;2.00;;
10661;SDS011;5379;51.034;7.006;2023-04-06T13:50:52;3.13;;;2.93;;
10661;SDS011;5379;51.034;7.006;2023-04-06T13:53:20;2.77;;;2.57;;
10661;SDS011;5379;51.034;7.006;2023-04-06T13:55:52;5.67;;;3.20;;
10661;SDS011;5379;51.034;7.006;2023-04-06T13:58:19;2.30;;;2.20;;
10661;SDS011;5379;51.034;7.006;2023-04-06T14:00:46;3.27;;;3.00;;
10661;SDS011;5379;51.034;7.006;2023-04-06T14:03:13;2.70;;;2.50;;
10661;SDS011;5379;51.034;7.006;2023-04-06T14:05:40;2.93;;;2.73;;
10661;SDS011;5379;51.034;7.006;2023-04-06T14:08:07;2.47;;;2.33;;
10661;SDS011;5379;51.034;7.006;2023-04-06T14:10:38;2.50;;;2.40;;
10661;SDS011;5379;51.034;7.006;2023-04-06T14:13:05;3.30;;;2.93;;
10661;SDS011;5379;51.034;7.006;2023-04-06T14:15:32;4.07;;;2.50;;
10661;SDS011;5379;51.034;7.006;2023-04-06T14:17:59;2.33;;;2.23;;
10661;SDS011;5379;51.034;7.006;2023-04-06T14:20:26;0.80;;;0.80;;
10661;SDS011;5379;51.034;7.006;2023-04-06T14:22:53;3.23;;;2.93;;
10661;SDS011;5379;51.034;7.006;2023-04-06T14:25:20;2.83;;;2.50;;
10661;SDS011;5379;51.034;7.006;2023-04-06T14:27:49;2.87;;;2.67;;
10661;SDS011;5379;51.034;7.006;2023-04-06T14:30:16;2.93;;;2.67;;
10661;SDS011;5379;51.034;7.006;2023-04-06T14:32:43;3.03;;;2.83;;
10661;SDS011;5379;51.034;7.006;2023-04-06T14:35:10;2.97;;;2.77;;
10661;SDS011;5379;51.034;7.006;2023-04-06T14:37:37;1.97;;;1.87;;
10661;SDS011;5379;51.034;7.006;2023-04-06T14:40:05;3.83;;;2.77;;
10661;SDS011;5379;51.034;7.006;2023-04-06T14:42:32;2.63;;;2.43;;
10661;SDS011;5379;51.034;7.006;2023-04-06T14:45:01;2.60;;;2.43;;
10661;SDS011;5379;51.034;7.006;2023-04-06T14:47:28;3.73;;;2.87;;
10661;SDS011;5379;51.034;7.006;2023-04-06T14:49:55;2.30;;;2.20;;
10661;SDS011;5379;51.034;7.006;2023-04-06T14:52:22;2.67;;;2.57;;
10661;SDS011;5379;51.034;7.006;2023-04-06T14:54:49;2.47;;;2.30;;
10661;SDS011;5379;51.034;7.006;2023-04-06T14:57:16;2.53;;;2.37;;
10661;SDS011;5379;51.034;7.006;2023-04-06T14:59:43;9.33;;;3.33;;
10661;SDS011;5379;51.034;7.006;2023-04-06T15:02:11;2.37;;;2.27;;
10661;SDS011;5379;51.034;7.006;2023-04-06T15:04:38;2.20;;;2.10;;
10661;SDS011;5379;51.034;7.006;2023-04-06T15:07:06;2.20;;;2.10;;
10661;SDS011;5379;51.034;7.006;2023-04-06T15:09:33;2.50;;;2.30;;
10661;SDS011;5379;51.034;7.006;2023-04-06T15:12:00;3.23;;;2.97;;
10661;SDS011;5379;51.034;7.006;2023-04-06T15:14:27;2.33;;;2.23;;
10661;SDS011;5379;51.034;7.006;2023-04-06T15:16:54;2.80;;;2.30;;
10661;SDS011;5379;51.034;7.006;2023-04-06T15:19:22;2.47;;;2.37;;
10661;SDS011;5379;51.034;7.006;2023-04-06T15:21:49;2.27;;;2.17;;
10661;SDS011;5379;51.034;7.006;2023-04-06T15:24:16;2.07;;;1.97;;
10661;SDS011;5379;51.034;7.006;2023-04-06T15:26:43;2.30;;;2.17;;
10661;SDS011;5379;51.034;7.006;2023-04-06T15:29:10;2.30;;;2.20;;
10661;SDS011;5379;51.034;7.006;2023-04-06T15:31:37;2.73;;;2.37;;
10661;SDS011;5379;51.034;7.006;2023-04-06T15:34:05;2.20;;;2.10;;
10661;SDS011;5379;51.034;7.006;2023-04-06T15:36:34;1.87;;;1.87;;
10661;SDS011;5379;51.034;7.006;2023-04-06T15:39:02;1.87;;;1.80;;
10661;SDS011;5379;51.034;7.006;2023-04-06T15:41:33;1.47;;;1.43;;
10661;SDS011;5379;51.034;7.006;2023-04-06T15:44:00;1.93;;;1.87;;
10661;SDS011;5379;51.034;7.006;2023-04-06T15:46:27;2.03;;;1.93;;
10661;SDS011;5379;51.034;7.006;2023-04-06T15:48:54;1.93;;;1.83;;
10661;SDS011;5379;51.034;7.006;2023-04-06T15:51:21;1.80;;;1.73;;
10661;SDS011;5379;51.034;7.006;2023-04-06T15:53:50;1.57;;;1.57;;
10661;SDS011;5379;51.034;7.006;2023-04-06T15:56:17;1.90;;;1.83;;
10661;SDS011;5379;51.034;7.006;2023-04-06T15:58:45;2.20;;;2.07;;
10661;SDS011;5379;51.034;7.006;2023-04-06T16:01:12;2.00;;;1.90;;
10661;SDS011;5379;51.034;7.006;2023-04-06T16:03:40;2.03;;;1.93;;
10661;SDS011;5379;51.034;7.006;2023-04-06T16:06:07;2.33;;;2.13;;
10661;SDS011;5379;51.034;7.006;2023-04-06T16:08:34;2.20;;;2.10;;
10661;SDS011;5379;51.034;7.006;2023-04-06T16:11:03;2.80;;;2.30;;
10661;SDS011;5379;51.034;7.006;2023-04-06T16:13:31;2.10;;;2.00;;
10661;SDS011;5379;51.034;7.006;2023-04-06T16:15:58;2.27;;;2.13;;
10661;SDS011;5379;51.034;7.006;2023-04-06T16:18:25;3.10;;;2.30;;
10661;SDS011;5379;51.034;7.006;2023-04-06T16:20:52;2.43;;;2.20;;
10661;SDS011;5379;51.034;7.006;2023-04-06T16:23:19;2.33;;;2.23;;
10661;SDS011;5379;51.034;7.006;2023-04-06T16:25:46;4.23;;;2.47;;
10661;SDS011;5379;51.034;7.006;2023-04-06T16:28:15;3.63;;;2.63;;
10661;SDS011;5379;51.034;7.006;2023-04-06T16:30:42;2.57;;;2.47;;
10661;SDS011;5379;51.034;7.006;2023-04-06T16:33:09;2.87;;;2.67;;
10661;SDS011;5379;51.034;7.006;2023-04-06T16:35:41;2.67;;;2.50;;
10661;SDS011;5379;51.034;7.006;2023-04-06T16:38:09;2.60;;;2.47;;
10661;SDS011;5379;51.034;7.006;2023-04-06T16:40:36;4.03;;;3.43;;
10661;SDS011;5379;51.034;7.006;2023-04-06T16:43:03;7.30;;;3.17;;
10661;SDS011;5379;51.034;7.006;2023-04-06T16:45:32;2.90;;;2.70;;
10661;SDS011;5379;51.034;7.006;2023-04-06T16:47:59;3.40;;;3.10;;
10661;SDS011;5379;51.034;7.006;2023-04-06T16:50:26;3.00;;;2.83;;
10661;SDS011;5379;51.034;7.006;2023-04-06T16:52:52;3.10;;;2.90;;
10661;SDS011;5379;51.034;7.006;2023-04-06T16:55:20;2.53;;;2.43;;
10661;SDS011;5379;51.034;7.006;2023-04-06T16:57:47;3.30;;;3.10;;
10661;SDS011;5379;51.034;7.006;2023-04-06T17:00:14;3.23;;;2.97;;
10661;SDS011;5379;51.034;7.006;2023-04-06T17:02:46;3.80;;;3.43;;
10661;SDS011;5379;51.034;7.006;2023-04-06T17:05:13;6.37;;;3.90;;
10661;SDS011;5379;51.034;7.006;2023-04-06T17:07:44;3.27;;;3.07;;
10661;SDS011;5379;51.034;7.006;2023-04-06T17:10:11;3.63;;;3.33;;
10661;SDS011;5379;51.034;7.006;2023-04-06T17:12:38;3.10;;;2.90;;
10661;SDS011;5379;51.034;7.006;2023-04-06T17:15:06;4.17;;;3.43;;
10661;SDS011;5379;51.034;7.006;2023-04-06T17:17:33;6.73;;;3.10;;
10661;SDS011;5379;51.034;7.006;2023-04-06T17:20:03;3.20;;;2.97;;
10661;SDS011;5379;51.034;7.006;2023-04-06T17:22:30;3.70;;;3.40;;
10661;SDS011;5379;51.034;7.006;2023-04-06T17:24:57;2.80;;;2.63;;
10661;SDS011;5379;51.034;7.006;2023-04-06T17:27:26;3.50;;;3.20;;
10661;SDS011;5379;51.034;7.006;2023-04-06T17:29:53;2.97;;;2.77;;
10661;SDS011;5379;51.034;7.006;2023-04-06T17:32:20;2.83;;;2.73;;
10661;SDS011;5379;51.034;7.006;2023-04-06T17:34:47;3.60;;;3.40;;
10661;SDS011;5379;51.034;7.006;2023-04-06T17:37:16;3.33;;;3.03;;
10661;SDS011;5379;51.034;7.006;2023-04-06T17:39:43;8.17;;;4.17;;
10661;SDS011;5379;51.034;7.006;2023-04-06T17:42:10;7.30;;;3.27;;
10661;SDS011;5379;51.034;7.006;2023-04-06T17:44:37;3.20;;;3.00;;
10661;SDS011;5379;51.034;7.006;2023-04-06T17:47:04;3.03;;;2.87;;
10661;SDS011;5379;51.034;7.006;2023-04-06T17:49:31;4.03;;;3.63;;
10661;SDS011;5379;51.034;7.006;2023-04-06T17:51:58;4.17;;;3.40;;
10661;SDS011;5379;51.034;7.006;2023-04-06T17:54:26;3.03;;;2.83;;
10661;SDS011;5379;51.034;7.006;2023-04-06T17:56:53;5.33;;;2.97;;
10661;SDS011;5379;51.034;7.006;2023-04-06T17:59:21;3.60;;;3.30;;
10661;SDS011;5379;51.034;7.006;2023-04-06T18:01:48;5.30;;;2.90;;
10661;SDS011;5379;51.034;7.006;2023-04-06T18:04:15;3.57;;;3.37;;
10661;SDS011;5379;51.034;7.006;2023-04-06T18:06:42;3.07;;;2.87;;
10661;SDS011;5379;51.034;7.006;2023-04-06T18:09:09;2.70;;;2.50;;
10661;SDS011;5379;51.034;7.006;2023-04-06T18:11:37;3.00;;;2.80;;
10661;SDS011;5379;51.034;7.006;2023-04-06T18:14:05;3.70;;;3.40;;
10661;SDS011;5379;51.034;7.006;2023-04-06T18:16:32;3.67;;;3.47;;
10661;SDS011;5379;51.034;7.006;2023-04-06T18:18:59;3.30;;;3.10;;
10661;SDS011;5379;51.034;7.006;2023-04-06T18:21:28;3.07;;;2.87;;
10661;SDS011;5379;51.034;7.006;2023-04-06T18:23:55;3.37;;;3.17;;
10661;SDS011;5379;51.034;7.006;2023-04-06T18:26:22;3.77;;;3.57;;
10661;SDS011;5379;51.034;7.006;2023-04-06T18:28:51;3.47;;;3.27;;
10661;SDS011;5379;51.034;7.006;2023-04-06T18:31:18;3.53;;;3.33;;
10661;SDS011;5379;51.034;7.006;2023-04-06T18:33:45;3.17;;;2.97;;
10661;SDS011;5379;51.034;7.006;2023-04-06T18:36:12;3.03;;;2.90;;
10661;SDS011;5379;51.034;7.006;2023-04-06T18:38:41;3.97;;;3.67;;
10661;SDS011;5379;51.034;7.006;2023-04-06T18:41:08;4.37;;;3.10;;
10661;SDS011;5379;51.034;7.006;2023-04-06T18:43:35;4.13;;;3.73;;
10661;SDS011;5379;51.034;7.006;2023-04-06T18:46:05;3.63;;;3.43;;
10661;SDS011;5379;51.034;7.006;2023-04-06T18:48:35;3.67;;;3.47;;
10661;SDS011;5379;51.034;7.006;2023-04-06T18:51:02;3.60;;;3.40;;
10661;SDS011;5379;51.034;7.006;2023-04-06T18:53:29;3.67;;;3.47;;
10661;SDS011;5379;51.034;7.006;2023-04-06T18:55:56;3.90;;;3.60;;
10661;SDS011;5379;51.034;7.006;2023-04-06T18:58:24;4.37;;;3.97;;
10661;SDS011;5379;51.034;7.006;2023-04-06T19:00:51;3.97;;;3.70;;
10661;SDS011;5379;51.034;7.006;2023-04-06T19:03:19;4.07;;;3.67;;
10661;SDS011;5379;51.034;7.006;2023-04-06T19:05:46;3.83;;;3.53;;
10661;SDS011;5379;51.034;7.006;2023-04-06T19:08:13;4.33;;;4.03;;
10661;SDS011;5379;51.034;7.006;2023-04-06T19:10:40;4.40;;;4.10;;
10661;SDS011;5379;51.034;7.006;2023-04-06T19:13:07;3.60;;;3.40;;
10661;SDS011;5379;51.034;7.006;2023-04-06T19:15:35;3.80;;;3.60;;
10661;SDS011;5379;51.034;7.006;2023-04-06T19:18:02;3.77;;;3.47;;
10661;SDS011;5379;51.034;7.006;2023-04-06T19:20:30;4.60;;;4.20;;
10661;SDS011;5379;51.034;7.006;2023-04-06T19:22:59;3.40;;;3.20;;
10661;SDS011;5379;51.034;7.006;2023-04-06T19:25:27;3.73;;;3.43;;
10661;SDS011;5379;51.034;7.006;2023-04-06T19:27:55;3.80;;;3.60;;
10661;SDS011;5379;51.034;7.006;2023-04-06T19:30:22;3.80;;;3.50;;
10661;SDS011;5379;51.034;7.006;2023-04-06T19:32:49;3.80;;;3.50;;
10661;SDS011;5379;51.034;7.006;2023-04-06T19:35:17;3.50;;;3.30;;